createdAt,value
2022-09-24T00:01:36.156Z,18.40
2022-09-24T00:04:08.475Z,18.40
2022-09-24T00:06:41.243Z,18.50
2022-09-24T00:09:12.244Z,18.40
2022-09-24T00:11:44.030Z,18.50
2022-09-24T00:14:13.856Z,18.40
2022-09-24T00:16:45.725Z,18.50
2022-09-24T00:19:16.088Z,18.40
2022-09-24T00:21:45.730Z,18.50
2022-09-24T00:24:35.566Z,18.50
2022-09-24T00:27:06.955Z,18.50
2022-09-24T00:29:37.394Z,18.60
2022-09-24T00:32:07.913Z,18.00
2022-09-24T00:34:37.640Z,18.20
2022-09-24T00:37:07.142Z,17.80
2022-09-24T00:39:36.539Z,17.70
2022-09-24T00:42:06.185Z,18.10
2022-09-24T00:44:47.413Z,18.20
2022-09-24T00:47:29.053Z,18.30
2022-09-24T00:50:01.542Z,18.00
2022-09-24T00:52:31.126Z,17.80
2022-09-24T00:55:01.302Z,17.50
2022-09-24T00:57:32.169Z,17.80
2022-09-24T01:00:01.779Z,17.90
2022-09-24T01:02:32.136Z,18.20
2022-09-24T01:05:01.728Z,18.20
2022-09-24T01:07:31.467Z,18.20
2022-09-24T01:10:00.928Z,18.20
2022-09-24T01:12:45.984Z,18.10
2022-09-24T01:15:33.671Z,18.00
2022-09-24T01:18:14.848Z,18.20
2022-09-24T01:20:59.195Z,18.00
2022-09-24T01:23:52.357Z,17.80
2022-09-24T01:26:48.377Z,17.90
2022-09-24T01:29:40.591Z,18.00
2022-09-24T01:32:31.616Z,17.80
2022-09-24T01:35:03.436Z,17.80
2022-09-24T01:37:36.174Z,17.90
2022-09-24T01:40:10.447Z,17.90
2022-09-24T01:42:43.227Z,17.90
2022-09-24T01:45:14.994Z,17.90
2022-09-24T01:47:45.893Z,17.90
2022-09-24T01:50:18.601Z,17.80
2022-09-24T01:52:51.182Z,17.90
2022-09-24T01:55:24.591Z,17.90
2022-09-24T01:58:06.310Z,17.90
2022-09-24T02:00:37.522Z,17.90
2022-09-24T02:03:12.776Z,17.80
2022-09-24T02:06:03.907Z,17.70
2022-09-24T02:08:36.608Z,17.70
2022-09-24T02:11:14.830Z,17.60
2022-09-24T02:13:53.226Z,17.70
2022-09-24T02:16:28.956Z,17.80
2022-09-24T02:19:01.796Z,17.70
2022-09-24T02:21:33.629Z,17.70
2022-09-24T02:25:48.209Z,17.80
2022-09-24T02:28:19.585Z,17.90
2022-09-24T02:30:55.120Z,18.00
2022-09-24T02:33:44.885Z,17.90
2022-09-24T02:36:14.455Z,18.00
2022-09-24T02:38:44.160Z,18.00
2022-09-24T02:41:14.972Z,17.90
2022-09-24T02:43:44.411Z,18.00
2022-09-24T02:46:13.898Z,18.00
2022-09-24T02:48:43.547Z,17.80
2022-09-24T02:51:12.977Z,17.90
2022-09-24T02:53:42.473Z,18.00
2022-09-24T02:56:11.918Z,17.90
2022-09-24T02:58:41.349Z,17.90
2022-09-24T03:01:10.837Z,17.80
2022-09-24T03:03:40.285Z,17.90
2022-09-24T03:06:11.124Z,17.90
2022-09-24T03:08:42.693Z,18.00
2022-09-24T03:11:18.335Z,18.00
2022-09-24T03:13:44.461Z,18.00
2022-09-24T03:16:13.906Z,17.90
2022-09-24T03:18:43.721Z,17.90
2022-09-24T03:21:15.231Z,17.80
2022-09-24T03:23:45.704Z,18.00
2022-09-24T03:26:16.239Z,18.00
2022-09-24T03:28:46.433Z,17.90
2022-09-24T03:31:16.184Z,17.90
2022-09-24T03:33:49.003Z,17.90
2022-09-24T03:36:24.578Z,17.80
2022-09-24T03:38:56.698Z,17.90
2022-09-24T03:41:28.480Z,17.80
2022-09-24T03:43:57.991Z,17.80
2022-09-24T03:46:28.711Z,17.80
2022-09-24T03:49:00.480Z,17.90
2022-09-24T03:51:29.970Z,17.90
2022-09-24T03:53:59.670Z,17.80
2022-09-24T03:56:29.083Z,17.80
2022-09-24T03:58:58.630Z,17.90
2022-09-24T04:01:29.554Z,17.70
2022-09-24T04:04:00.458Z,17.70
2022-09-24T04:06:29.923Z,17.90
2022-09-24T04:09:00.500Z,17.80
2022-09-24T04:11:29.914Z,17.90
2022-09-24T04:13:59.380Z,18.00
2022-09-24T04:16:28.863Z,17.90
2022-09-24T04:18:58.393Z,17.90
2022-09-24T04:21:27.828Z,17.90
2022-09-24T04:23:57.277Z,17.80
2022-09-24T04:26:26.689Z,17.80
2022-09-24T04:28:57.753Z,17.70
2022-09-24T04:31:30.593Z,17.70
2022-09-24T04:34:00.627Z,17.70
2022-09-24T04:36:30.452Z,17.60
2022-09-24T04:38:59.937Z,17.70
2022-09-24T04:41:29.442Z,17.60
2022-09-24T04:43:59.827Z,17.70
2022-09-24T04:46:29.352Z,17.50
2022-09-24T04:48:58.828Z,17.60
2022-09-24T04:51:28.265Z,17.70
2022-09-24T04:53:58.548Z,17.60
2022-09-24T04:56:28.114Z,17.60
2022-09-24T04:58:58.403Z,17.60
2022-09-24T05:01:28.359Z,17.60
2022-09-24T05:03:57.803Z,17.60
2022-09-24T05:06:27.384Z,17.60
2022-09-24T05:08:57.152Z,17.60
2022-09-24T05:11:26.579Z,17.60
2022-09-24T05:13:56.086Z,17.60
2022-09-24T05:16:26.345Z,17.60
2022-09-24T05:18:56.190Z,17.60
2022-09-24T05:21:26.098Z,17.60
2022-09-24T05:23:55.574Z,17.70
2022-09-24T05:26:43.117Z,17.70
2022-09-24T05:29:12.589Z,17.80
2022-09-24T05:31:42.073Z,17.50
2022-09-24T05:34:12.375Z,17.50
2022-09-24T05:36:44.182Z,17.50
2022-09-24T05:39:14.622Z,17.50
2022-09-24T05:41:44.051Z,17.40
2022-09-24T05:44:13.616Z,17.40
2022-09-24T05:46:43.119Z,17.50
2022-09-24T05:49:12.581Z,17.50
2022-09-24T05:51:42.237Z,17.50
2022-09-24T05:54:12.631Z,17.50
2022-09-24T05:56:42.119Z,17.40
2022-09-24T05:59:11.687Z,17.50
2022-09-24T06:01:41.675Z,17.30
2022-09-24T06:04:13.196Z,17.30
2022-09-24T06:06:43.963Z,17.50
2022-09-24T06:09:13.729Z,17.60
2022-09-24T06:11:43.447Z,17.60
2022-09-24T06:14:15.251Z,17.60
2022-09-24T06:16:44.793Z,17.60
2022-09-24T06:19:14.293Z,17.50
2022-09-24T06:21:43.720Z,17.40
2022-09-24T06:24:13.271Z,17.50
2022-09-24T06:26:42.701Z,17.60
2022-09-24T06:29:12.115Z,17.60
2022-09-24T06:31:41.616Z,17.60
2022-09-24T06:34:11.087Z,17.50
2022-09-24T06:36:40.518Z,17.50
2022-09-24T06:39:10.079Z,17.50
2022-09-24T06:41:39.462Z,17.40
2022-09-24T06:44:10.675Z,17.50
2022-09-24T06:46:40.101Z,17.50
2022-09-24T06:49:09.697Z,17.50
2022-09-24T06:51:39.988Z,17.40
2022-09-24T06:54:09.553Z,17.50
2022-09-24T06:56:38.967Z,17.60
2022-09-24T06:59:09.771Z,17.70
2022-09-24T07:01:39.314Z,17.80
2022-09-24T07:04:09.231Z,17.80
2022-09-24T07:06:56.915Z,18.10
2022-09-24T07:09:26.348Z,18.10
2022-09-24T07:11:56.976Z,18.00
2022-09-24T07:14:26.403Z,17.90
2022-09-24T07:16:55.811Z,17.90
2022-09-24T07:19:25.262Z,17.90
2022-09-24T07:21:54.676Z,17.80
2022-09-24T07:24:24.187Z,17.90
2022-09-24T07:26:54.514Z,17.90
2022-09-24T07:29:24.020Z,18.00
2022-09-24T07:31:53.445Z,18.00
2022-09-24T07:34:23.032Z,18.00
2022-09-24T07:36:52.450Z,17.80
2022-09-24T07:39:21.888Z,17.70
2022-09-24T07:41:52.365Z,18.00
2022-09-24T07:44:23.200Z,18.50
2022-09-24T07:46:53.142Z,19.00
2022-09-24T07:49:23.168Z,19.70
2022-09-24T07:51:54.085Z,20.20
2022-09-24T07:54:23.520Z,19.80
2022-09-24T07:56:53.008Z,19.50
2022-09-24T07:59:22.663Z,19.20
2022-09-24T08:01:53.260Z,19.30
2022-09-24T08:04:22.844Z,19.30
2022-09-24T08:06:52.376Z,19.60
2022-09-24T08:09:22.392Z,19.70
2022-09-24T08:11:51.815Z,19.50
2022-09-24T08:14:21.417Z,19.60
2022-09-24T08:16:50.904Z,19.00
2022-09-24T08:19:20.341Z,19.30
2022-09-24T08:21:49.835Z,19.30
2022-09-24T08:24:19.322Z,19.30
2022-09-24T08:26:48.756Z,19.40
2022-09-24T08:29:18.260Z,19.40
2022-09-24T08:31:47.770Z,19.50
2022-09-24T08:34:17.218Z,19.40
2022-09-24T08:36:46.644Z,19.50
2022-09-24T08:39:16.673Z,19.50
2022-09-24T08:41:49.168Z,19.80
2022-09-24T08:44:48.576Z,20.00
2022-09-24T08:47:26.923Z,19.90
2022-09-24T08:50:04.790Z,20.20
2022-09-24T08:52:53.540Z,21.10
2022-09-24T08:55:30.339Z,22.10
2022-09-24T08:58:05.629Z,22.40
2022-09-24T09:00:38.244Z,22.20
2022-09-24T09:03:16.645Z,21.80
2022-09-24T09:05:52.692Z,21.40
2022-09-24T09:08:54.600Z,20.90
2022-09-24T09:11:03.358Z,20.60
2022-09-24T09:13:41.657Z,19.80
2022-09-24T09:16:30.918Z,19.80
2022-09-24T09:19:03.393Z,20.40
2022-09-24T09:21:42.798Z,20.90
2022-09-24T09:24:22.526Z,22.20
2022-09-24T09:26:54.674Z,23.00
2022-09-24T09:29:28.294Z,23.60
2022-09-24T09:32:28.157Z,23.20
2022-09-24T09:35:19.535Z,22.70
2022-09-24T09:37:57.792Z,23.00
2022-09-24T09:40:38.572Z,24.00
2022-09-24T09:43:14.132Z,24.60
2022-09-24T09:46:07.654Z,23.20
2022-09-24T09:48:55.551Z,22.40
2022-09-24T09:51:27.874Z,22.40
2022-09-24T09:54:00.265Z,22.40
2022-09-24T09:56:33.032Z,22.30
2022-09-24T09:59:22.603Z,22.30
2022-09-24T10:01:56.795Z,22.00
2022-09-24T10:04:39.490Z,22.50
2022-09-24T10:07:17.368Z,22.70
2022-09-24T10:09:47.437Z,21.90
2022-09-24T10:12:22.700Z,22.00
2022-09-24T10:15:02.092Z,21.90
2022-09-24T10:17:40.159Z,23.20
2022-09-24T10:20:21.389Z,23.40
2022-09-24T10:22:53.521Z,24.00
2022-09-24T10:25:26.952Z,23.50
2022-09-24T10:28:20.101Z,22.60
2022-09-24T10:30:55.937Z,22.70
2022-09-24T10:33:26.268Z,22.40
2022-09-24T10:36:05.784Z,22.80
2022-09-24T10:38:35.842Z,22.50
2022-09-24T10:41:17.564Z,22.60
2022-09-24T10:43:54.962Z,23.30
2022-09-24T10:46:42.410Z,23.70
2022-09-24T10:49:36.627Z,23.80
2022-09-24T10:52:24.206Z,23.20
2022-09-24T10:55:12.952Z,23.20
2022-09-24T10:58:04.912Z,22.90
2022-09-24T11:00:40.126Z,22.60
2022-09-24T11:03:24.681Z,23.20
2022-09-24T11:05:56.713Z,23.40
2022-09-24T11:08:31.984Z,23.40
2022-09-24T11:11:09.000Z,23.20
2022-09-24T11:13:41.642Z,23.60
2022-09-24T11:16:20.046Z,23.20
2022-09-24T11:19:01.650Z,23.30
2022-09-24T11:21:51.495Z,23.30
2022-09-24T11:24:39.105Z,23.40
2022-09-24T11:27:20.503Z,22.90
2022-09-24T11:29:58.879Z,23.40
2022-09-24T11:32:46.415Z,22.80
2022-09-24T11:35:49.224Z,22.40
2022-09-24T11:38:39.501Z,22.40
2022-09-24T11:41:24.054Z,22.20
2022-09-24T11:43:57.632Z,22.60
2022-09-24T11:46:46.672Z,23.50
2022-09-24T11:49:31.154Z,23.30
2022-09-24T11:52:06.231Z,22.80
2022-09-24T11:54:53.520Z,22.40
2022-09-24T11:57:31.992Z,22.20
2022-09-24T12:00:06.361Z,22.10
2022-09-24T12:03:00.205Z,21.80
2022-09-24T12:05:38.393Z,21.90
2022-09-24T12:08:24.832Z,21.70
2022-09-24T12:10:57.680Z,21.60
2022-09-24T12:13:36.168Z,21.60
2022-09-24T12:16:14.678Z,21.60
2022-09-24T12:18:51.735Z,21.50
2022-09-24T12:21:30.203Z,21.40
2022-09-24T12:24:03.321Z,21.50
2022-09-24T12:26:35.965Z,21.40
2022-09-24T12:29:43.093Z,21.30
2022-09-24T12:32:45.300Z,21.20
2022-09-24T12:35:35.003Z,21.30
2022-09-24T12:38:16.525Z,21.40
2022-09-24T12:41:22.511Z,21.50
2022-09-24T12:44:09.931Z,21.60
2022-09-24T12:46:57.980Z,21.80
2022-09-24T12:49:34.271Z,21.70
2022-09-24T12:52:19.327Z,21.90
2022-09-24T12:54:51.813Z,21.90
2022-09-24T12:57:26.048Z,22.60
2022-09-24T13:00:00.823Z,23.00
2022-09-24T13:02:33.617Z,22.90
2022-09-24T13:05:17.237Z,22.50
2022-09-24T13:07:58.659Z,22.20
2022-09-24T13:10:35.655Z,22.20
2022-09-24T13:13:23.119Z,22.30
2022-09-24T13:15:58.629Z,22.30
2022-09-24T13:18:28.382Z,22.00
2022-09-24T13:21:00.962Z,21.90
2022-09-24T13:23:38.900Z,21.90
2022-09-24T13:26:10.676Z,21.80
2022-09-24T13:29:01.249Z,21.60
2022-09-24T13:31:36.335Z,22.00
2022-09-24T13:34:14.906Z,21.40
2022-09-24T13:36:53.671Z,21.50
2022-09-24T13:39:38.764Z,21.40
2022-09-24T13:42:43.329Z,21.40
2022-09-24T13:45:21.983Z,21.10
2022-09-24T13:48:00.396Z,20.80
2022-09-24T13:50:39.286Z,20.90
2022-09-24T13:53:17.678Z,21.70
2022-09-24T13:55:53.810Z,21.90
2022-09-24T13:58:38.618Z,22.40
2022-09-24T14:01:14.205Z,22.30
2022-09-24T14:03:46.135Z,22.40
2022-09-24T14:06:19.896Z,22.20
2022-09-24T14:08:51.828Z,22.60
2022-09-24T14:11:27.649Z,22.40
2022-09-24T14:13:58.728Z,21.80
2022-09-24T14:16:28.240Z,21.20
2022-09-24T14:19:05.912Z,21.20
2022-09-24T14:21:41.982Z,21.20
2022-09-24T14:24:26.215Z,21.10
2022-09-24T14:27:18.419Z,21.00
2022-09-24T14:29:50.949Z,20.90
2022-09-24T14:32:35.383Z,20.90
2022-09-24T14:35:10.925Z,20.70
2022-09-24T14:37:43.593Z,20.70
2022-09-24T14:40:18.396Z,20.70
2022-09-24T14:43:00.030Z,20.60
2022-09-24T14:45:34.092Z,20.30
2022-09-24T14:48:06.266Z,20.20
2022-09-24T14:50:41.387Z,20.10
2022-09-24T14:53:37.328Z,19.90
2022-09-24T14:56:09.831Z,20.20
2022-09-24T14:58:39.272Z,20.30
2022-09-24T15:01:14.383Z,20.30
2022-09-24T15:03:46.995Z,20.20
2022-09-24T15:06:19.492Z,20.20
2022-09-24T15:08:58.127Z,20.30
2022-09-24T15:11:31.906Z,20.00
2022-09-24T15:14:16.261Z,20.00
2022-09-24T15:16:47.724Z,19.80
2022-09-24T15:19:27.031Z,19.50
2022-09-24T15:22:00.464Z,19.40
2022-09-24T15:24:30.416Z,19.30
2022-09-24T15:27:08.618Z,19.20
2022-09-24T15:29:38.099Z,19.40
2022-09-24T15:32:19.336Z,19.50
2022-09-24T15:34:49.584Z,19.30
2022-09-24T15:37:25.557Z,19.10
2022-09-24T15:40:05.402Z,18.90
2022-09-24T15:42:34.843Z,18.90
2022-09-24T15:45:05.836Z,19.10
2022-09-24T15:47:35.372Z,19.00
2022-09-24T15:50:04.955Z,18.90
2022-09-24T15:52:36.785Z,18.90
2022-09-24T15:55:09.299Z,18.90
2022-09-24T15:57:38.731Z,18.90
2022-09-24T16:00:10.511Z,18.80
2022-09-24T16:02:41.636Z,18.90
2022-09-24T16:05:14.336Z,19.00
2022-09-24T16:07:45.429Z,19.00
2022-09-24T16:10:16.723Z,18.80
2022-09-24T16:12:46.320Z,18.80
2022-09-24T16:15:17.608Z,18.90
2022-09-24T16:17:50.187Z,18.70
2022-09-24T16:20:22.762Z,18.70
2022-09-24T16:22:52.333Z,18.40
2022-09-24T16:25:25.157Z,18.50
2022-09-24T16:27:56.234Z,18.60
2022-09-24T16:30:26.507Z,18.50
2022-09-24T16:32:56.020Z,18.50
2022-09-24T16:35:27.414Z,18.50
2022-09-24T16:37:58.555Z,18.70
2022-09-24T16:40:28.092Z,18.50
2022-09-24T16:42:57.516Z,18.50
2022-09-24T16:45:27.068Z,18.30
2022-09-24T16:47:56.512Z,18.50
2022-09-24T16:50:26.203Z,18.40
2022-09-24T16:52:55.714Z,18.30
2022-09-24T16:55:25.229Z,18.30
2022-09-24T16:57:56.304Z,18.40
2022-09-24T17:00:25.822Z,18.40
2022-09-24T17:02:55.330Z,18.20
2022-09-24T17:05:24.783Z,18.30
2022-09-24T17:07:54.244Z,18.30
2022-09-24T17:10:24.244Z,18.30
2022-09-24T17:12:53.675Z,18.50
2022-09-24T17:15:23.670Z,18.30
2022-09-24T17:17:53.108Z,18.10
2022-09-24T17:20:22.532Z,18.20
2022-09-24T17:22:52.245Z,18.00
2022-09-24T17:25:21.923Z,18.00
2022-09-24T17:27:51.358Z,17.90
2022-09-24T17:30:21.575Z,17.90
2022-09-24T17:32:52.621Z,17.90
2022-09-24T17:35:23.370Z,17.90
2022-09-24T17:37:52.794Z,17.80
2022-09-24T17:40:24.410Z,17.80
2022-09-24T17:42:53.304Z,17.90
2022-09-24T17:45:22.738Z,17.80
2022-09-24T17:47:58.524Z,17.80
2022-09-24T17:50:29.666Z,17.80
2022-09-24T17:52:59.137Z,17.70
2022-09-24T17:55:28.654Z,17.80
2022-09-24T17:57:58.059Z,17.70
2022-09-24T18:00:27.542Z,17.70
2022-09-24T18:02:57.040Z,17.70
2022-09-24T18:05:26.508Z,17.70
2022-09-24T18:07:55.980Z,17.70
2022-09-24T18:10:25.479Z,17.70
2022-09-24T18:13:01.968Z,17.70
2022-09-24T18:15:32.307Z,17.70
2022-09-24T18:18:01.859Z,17.60
2022-09-24T18:20:31.770Z,17.60
2022-09-24T18:23:01.203Z,17.60
2022-09-24T18:25:30.735Z,17.60
2022-09-24T18:28:01.803Z,17.50
2022-09-24T18:30:31.372Z,17.30
2022-09-24T18:33:01.667Z,17.30
2022-09-24T18:35:31.121Z,17.20
2022-09-24T18:38:01.238Z,17.10
2022-09-24T18:40:31.168Z,17.20
2022-09-24T18:43:00.754Z,17.10
2022-09-24T18:45:30.545Z,17.10
2022-09-24T18:47:59.988Z,17.00
2022-09-24T18:50:29.541Z,16.90
2022-09-24T18:53:00.154Z,16.80
2022-09-24T18:55:30.713Z,16.80
2022-09-24T18:58:00.132Z,16.80
2022-09-24T19:00:47.207Z,16.70
2022-09-24T19:03:17.937Z,16.80
2022-09-24T19:05:51.852Z,16.90
2022-09-24T19:08:22.310Z,16.90
2022-09-24T19:10:53.457Z,16.80
2022-09-24T19:13:26.297Z,16.90
2022-09-24T19:15:54.405Z,16.90
2022-09-24T19:18:23.851Z,16.90
2022-09-24T19:20:53.392Z,16.80
2022-09-24T19:23:22.820Z,16.90
2022-09-24T19:25:52.957Z,16.80
2022-09-24T19:28:22.481Z,16.80
2022-09-24T19:30:53.259Z,16.80
2022-09-24T19:33:22.996Z,16.70
2022-09-24T19:35:58.186Z,16.70
2022-09-24T19:38:29.540Z,16.70
2022-09-24T19:41:11.452Z,16.60
2022-09-24T19:43:47.717Z,16.60
2022-09-24T19:46:17.955Z,16.60
2022-09-24T19:48:49.752Z,16.60
2022-09-24T19:51:22.124Z,16.50
2022-09-24T19:53:54.081Z,16.70
2022-09-24T19:56:25.499Z,16.60
2022-09-24T19:58:56.723Z,16.50
2022-09-24T20:01:29.185Z,16.40
2022-09-24T20:04:00.537Z,16.40
2022-09-24T20:06:31.370Z,16.40
2022-09-24T20:09:00.990Z,16.40
2022-09-24T20:11:32.798Z,16.40
2022-09-24T20:14:06.136Z,16.40
2022-09-24T20:16:36.240Z,16.30
2022-09-24T20:19:05.665Z,16.40
2022-09-24T20:21:36.956Z,16.40
2022-09-24T20:24:08.716Z,16.50
2022-09-24T20:26:56.476Z,16.60
2022-09-24T20:29:26.057Z,16.40
2022-09-24T20:31:57.119Z,16.40
2022-09-24T20:34:34.445Z,16.30
2022-09-24T20:37:05.841Z,16.30
2022-09-24T20:39:35.495Z,16.10
2022-09-24T20:42:06.698Z,16.20
2022-09-24T20:44:36.172Z,16.00
2022-09-24T20:47:05.660Z,16.00
2022-09-24T20:49:35.093Z,15.90
2022-09-24T20:52:05.852Z,15.90
2022-09-24T20:54:35.442Z,15.80
2022-09-24T20:57:05.245Z,15.80
2022-09-24T20:59:34.681Z,15.70
2022-09-24T21:02:04.241Z,15.70
2022-09-24T21:04:35.550Z,15.70
2022-09-24T21:07:05.011Z,15.70
2022-09-24T21:09:34.429Z,15.70
2022-09-24T21:12:03.956Z,15.70
2022-09-24T21:14:35.025Z,15.60
2022-09-24T21:17:04.800Z,15.60
2022-09-24T21:19:35.724Z,15.50
2022-09-24T21:22:06.539Z,15.60
2022-09-24T21:24:37.682Z,15.60
2022-09-24T21:27:07.698Z,15.60
2022-09-24T21:29:37.215Z,15.60
2022-09-24T21:32:08.250Z,15.50
2022-09-24T21:34:37.689Z,15.60
2022-09-24T21:37:09.066Z,15.60
2022-09-24T21:39:38.557Z,15.50
2022-09-24T21:42:08.615Z,15.50
2022-09-24T21:44:38.200Z,15.40
2022-09-24T21:47:07.791Z,15.30
2022-09-24T21:49:37.237Z,15.40
2022-09-24T21:52:07.245Z,15.20
2022-09-24T21:54:38.447Z,15.20
2022-09-24T21:57:08.165Z,15.30
2022-09-24T21:59:55.412Z,15.30
2022-09-24T22:02:24.949Z,15.40
2022-09-24T22:04:54.497Z,15.40
2022-09-24T22:07:24.600Z,15.40
2022-09-24T22:09:54.156Z,15.40
2022-09-24T22:12:23.653Z,15.30
2022-09-24T22:14:53.083Z,15.30
2022-09-24T22:17:22.597Z,15.30
2022-09-24T22:19:52.056Z,15.30
2022-09-24T22:22:22.028Z,15.20
2022-09-24T22:24:51.467Z,15.20
2022-09-24T22:27:20.916Z,15.30
2022-09-24T22:29:50.440Z,15.20
2022-09-24T22:32:19.879Z,15.20
2022-09-24T22:35:07.467Z,15.20
2022-09-24T22:37:37.973Z,15.20
2022-09-24T22:40:08.961Z,15.30
2022-09-24T22:42:38.421Z,15.10
2022-09-24T22:45:09.332Z,15.10
2022-09-24T22:47:39.005Z,15.10
2022-09-24T22:50:08.888Z,15.10
2022-09-24T22:52:38.400Z,15.10
2022-09-24T22:55:08.479Z,15.10
2022-09-24T22:57:37.916Z,15.10
2022-09-24T23:00:08.243Z,15.00
2022-09-24T23:02:39.314Z,15.00
2022-09-24T23:05:10.463Z,14.90
2022-09-24T23:07:40.221Z,14.90
2022-09-24T23:10:10.624Z,14.80
2022-09-24T23:12:40.162Z,14.90
2022-09-24T23:15:10.194Z,14.90
2022-09-24T23:17:39.843Z,14.90
2022-09-24T23:20:10.359Z,14.80
2022-09-24T23:22:39.789Z,14.80
2022-09-24T23:25:09.993Z,14.80
2022-09-24T23:27:39.529Z,14.80
2022-09-24T23:30:10.082Z,14.90
2022-09-24T23:32:39.981Z,14.80
2022-09-24T23:35:09.554Z,14.80
2022-09-24T23:37:39.292Z,14.80
2022-09-24T23:40:10.816Z,14.70
2022-09-24T23:42:40.632Z,14.70
2022-09-24T23:45:10.528Z,14.60
2022-09-24T23:47:40.009Z,14.60
2022-09-24T23:50:09.669Z,14.80
2022-09-24T23:52:39.097Z,14.80
2022-09-24T23:55:08.773Z,14.80
2022-09-24T23:57:38.200Z,14.80
